weather.gov     
National Weather Service

Terminal Aerodrome Forecast
NWS Homepage
This page is being discontinued on March 12, 2014.
The same data is available at this site. Please update your bookmarks.
Thank you, and we apologize for the inconvenience.
Please send an email to SR-SRH.Webmaster@noaa.gov with any concerns.


Current Version
Previous Version:    01  02  03  04  05  06  07  08  09  10  11  12  13  14  15  16  17  18  19  20  21  22  23  24  25  26  27  28  29  30  
   31  32  33  34  35  36  37  38  39  
[Printable]
921
FTAK31 PAJN 191700 RRA
TAFAKT
TAF
PAKT 191742Z 1918/2018 13011KT P6SM VCTS SCT015 BKN030CB OVC045
      TEMPO 1918/1920 4SM TSRA BKN015 OVC030CB
     FM192000 14009KT P6SM -SHRA SCT025 OVC035
     FM200400 14015KT 6SM -RA BR SCT015 OVC025
     FM200800 14022G32KT 4SM RA BR BKN012 OVC022 WS020/15045KT
      AMD LTD TO CLD VIS AND WIND 2006/2015=


U.S. Dept. of Commerce
NOAA National Weather Service
1325 East West Highway
Silver Spring, MD 20910
E-mail: w-nws.webmaster@noaa.gov
Page last modified: May 16, 2007
NATIONAL WEATHER SERVICE: for Safety, for Work, for Fun - FOR LIFE